Time;durP1;ratioP1;P1;durP2;ratioP2;P2;SDS_P1;SDS_P2;PMS_P1;PMS_P2;Temp;Humidity;BMP_temperature;BMP_pressure;BME280_temperature;BME280_humidity;BME280_pressure;Samples;Min_cycle;Max_cycle;Signal;HPM_P1;HPM_P2
2021/11/18 00:01:20;;;;;;;13.10;2.45;;;;;;;4.48;100.00;102044.19;5025447;28;20033;-75
2021/11/18 00:03:46;;;;;;;16.33;2.78;;;;;;;4.46;100.00;102049.47;5043216;28;20033;-76
2021/11/18 00:06:13;;;;;;;19.38;3.08;;;;;;;4.53;100.00;102041.38;5019208;28;20114;-78
2021/11/18 00:08:39;;;;;;;20.30;2.55;;;;;;;4.51;100.00;102049.25;5021319;28;20133;-74
2021/11/18 00:11:07;;;;;;;12.63;2.50;;;;;;;4.47;100.00;102056.34;5025160;28;20030;-77
2021/11/18 00:13:36;;;;;;;19.95;2.60;;;;;;;4.39;100.00;102045.50;5014742;28;20052;-77
2021/11/18 00:16:04;;;;;;;20.58;3.33;;;;;;;4.34;100.00;102044.03;5008413;28;20034;-78
2021/11/18 00:18:34;;;;;;;8.10;2.25;;;;;;;4.23;100.00;102053.16;5030035;28;20491;-77
2021/11/18 00:21:06;;;;;;;19.35;2.42;;;;;;;4.20;100.00;102044.66;5032725;28;20112;-78
2021/11/18 00:23:36;;;;;;;15.10;2.40;;;;;;;4.15;100.00;102044.91;5023795;28;20033;-76
2021/11/18 00:26:04;;;;;;;17.73;2.72;;;;;;;4.06;100.00;102037.56;5034073;28;20036;-78
2021/11/18 00:28:29;;;;;;;14.63;2.13;;;;;;;4.10;100.00;102029.53;5004928;28;20670;-78
2021/11/18 00:30:55;;;;;;;18.90;2.60;;;;;;;4.12;100.00;102044.22;5001917;28;20073;-78
2021/11/18 00:33:22;;;;;;;19.52;2.33;;;;;;;4.04;100.00;102054.97;5028187;28;20044;-75
2021/11/18 00:35:49;;;;;;;18.63;2.78;;;;;;;4.07;100.00;102044.44;5026743;28;20045;-75
2021/11/18 00:41:13;;;;;;;19.67;2.88;;;;;;;4.19;100.00;102043.00;4935553;23;20063;-75
2021/11/18 00:43:38;;;;;;;17.95;3.03;;;;;;;4.09;100.00;102043.44;4894493;29;20852;-76
2021/11/18 00:46:04;;;;;;;16.92;3.28;;;;;;;4.09;100.00;102059.03;4902981;29;20052;-77
2021/11/18 00:48:30;;;;;;;19.10;2.90;;;;;;;4.02;100.00;102056.78;4894913;29;20032;-76
2021/11/18 00:50:58;;;;;;;14.20;2.72;;;;;;;3.94;100.00;102049.38;4884479;29;20036;-77
2021/11/18 00:53:25;;;;;;;21.77;2.78;;;;;;;3.87;100.00;102050.56;4874525;29;20228;-77
2021/11/18 00:55:51;;;;;;;20.58;2.85;;;;;;;3.84;100.00;102055.88;4886470;29;20103;-76
2021/11/18 00:58:18;;;;;;;20.77;2.70;;;;;;;3.84;100.00;102043.75;4880642;29;20088;-76
2021/11/18 01:00:46;;;;;;;17.95;2.60;;;;;;;3.85;100.00;102029.03;4880848;29;20099;-79
2021/11/18 01:03:16;;;;;;;24.10;2.95;;;;;;;3.89;100.00;102039.19;4878428;29;20043;-78
2021/11/18 01:05:45;;;;;;;25.15;2.60;;;;;;;3.82;100.00;102040.38;4889962;29;20036;-77
2021/11/18 01:08:11;;;;;;;24.23;2.90;;;;;;;3.76;100.00;102030.28;4906320;29;20402;-77
2021/11/18 01:10:44;;;;;;;25.95;2.97;;;;;;;3.80;100.00;102028.38;4878376;29;20040;-77
2021/11/18 01:13:11;;;;;;;31.73;3.35;;;;;;;3.85;100.00;102024.66;4875914;29;20475;-78
2021/11/18 01:15:39;;;;;;;26.13;3.45;;;;;;;3.82;100.00;102026.56;4875876;29;20051;-77
2021/11/18 01:18:06;;;;;;;20.35;3.08;;;;;;;3.77;100.00;102034.56;4889618;29;20486;-78
2021/11/18 01:20:33;;;;;;;23.05;3.03;;;;;;;3.68;100.00;102048.78;4891181;29;20047;-77
2021/11/18 01:23:02;;;;;;;24.48;3.22;;;;;;;3.63;100.00;102055.94;4865885;29;20549;-77
2021/11/18 01:25:29;;;;;;;29.75;3.20;;;;;;;3.58;100.00;102047.53;4876581;29;20051;-78
2021/11/18 01:27:56;;;;;;;18.13;3.00;;;;;;;3.57;100.00;102051.03;4913585;29;20115;-77
2021/11/18 01:30:26;;;;;;;25.75;3.03;;;;;;;3.45;100.00;102055.03;4888167;29;20025;-77
2021/11/18 01:32:55;;;;;;;29.95;3.30;;;;;;;3.35;100.00;102063.28;4898813;29;20513;-77
2021/11/18 01:35:33;;;;;;;20.33;3.00;;;;;;;3.28;100.00;102060.97;4906002;29;20075;-78
2021/11/18 01:37:59;;;;;;;22.30;2.85;;;;;;;3.23;100.00;102059.47;4891738;29;20048;-77
2021/11/18 01:40:29;;;;;;;26.17;3.25;;;;;;;3.21;100.00;102056.94;4884425;29;20082;-76
2021/11/18 01:43:03;;;;;;;25.30;3.63;;;;;;;3.19;100.00;102069.13;4874105;29;20119;-77
2021/11/18 01:45:31;;;;;;;18.55;3.03;;;;;;;3.15;100.00;102062.41;4908169;29;20041;-78
2021/11/18 01:47:57;;;;;;;17.98;3.70;;;;;;;3.09;100.00;102052.31;4896038;29;20475;-78
2021/11/18 01:50:27;;;;;;;19.33;3.25;;;;;;;3.14;100.00;102070.25;4918578;29;20041;-78
2021/11/18 01:52:56;;;;;;;24.75;3.58;;;;;;;3.16;100.00;102073.59;4881874;29;20071;-77
2021/11/18 01:55:25;;;;;;;24.25;3.63;;;;;;;3.11;100.00;102063.44;4870144;29;20037;-77
2021/11/18 01:57:52;;;;;;;18.08;3.22;;;;;;;3.11;100.00;102076.41;4882764;29;20059;-76
2021/11/18 02:00:47;;;;;;;21.42;2.85;;;;;;;3.09;100.00;102068.69;4912340;29;20040;-77
2021/11/18 02:03:13;;;;;;;26.90;3.53;;;;;;;3.04;100.00;102064.59;4887172;29;20685;-77
2021/11/18 02:06:20;;;;;;;24.35;3.40;;;;;;;3.14;100.00;102067.66;4892257;29;20068;-77
2021/11/18 02:08:47;;;;;;;22.92;3.20;;;;;;;3.11;100.00;102058.25;4862744;29;20033;-77
2021/11/18 02:11:27;;;;;;;22.58;3.67;;;;;;;3.11;100.00;102066.03;4897733;29;20051;-77
2021/11/18 02:13:55;;;;;;;28.95;4.00;;;;;;;3.24;100.00;102068.91;4886596;29;20040;-77
2021/11/18 02:16:22;;;;;;;26.52;3.65;;;;;;;3.23;100.00;102062.91;4892998;29;20041;-76
2021/11/18 02:18:48;;;;;;;24.98;3.15;;;;;;;3.22;100.00;102076.78;4888420;29;20082;-76
2021/11/18 02:21:15;;;;;;;35.65;4.20;;;;;;;3.29;100.00;102066.97;4899710;29;20404;-76
2021/11/18 02:23:45;;;;;;;16.70;3.17;;;;;;;3.32;100.00;102069.44;4883327;29;20036;-76
2021/11/18 02:26:11;;;;;;;42.33;4.13;;;;;;;3.46;100.00;102059.28;4892150;29;20074;-76
2021/11/18 02:28:41;;;;;;;20.23;3.78;;;;;;;3.52;100.00;102068.56;4883696;29;20048;-78
2021/11/18 02:31:27;;;;;;;23.92;3.45;;;;;;;3.47;100.00;102067.94;4890861;29;20036;-78
2021/11/18 02:33:55;;;;;;;24.27;3.85;;;;;;;3.51;100.00;102066.88;4888502;29;20847;-78
2021/11/18 02:36:23;;;;;;;22.90;3.90;;;;;;;3.45;100.00;102077.53;4908830;29;20029;-78
2021/11/18 02:38:49;;;;;;;25.50;3.40;;;;;;;3.44;100.00;102081.03;4910334;29;20094;-76
2021/11/18 02:41:19;;;;;;;30.70;4.18;;;;;;;3.41;100.00;102071.63;4903188;29;20155;-78
2021/11/18 02:43:45;;;;;;;26.25;3.67;;;;;;;3.43;100.00;102076.78;4886270;29;20051;-78
2021/11/18 02:46:13;;;;;;;21.65;3.15;;;;;;;3.36;100.00;102078.78;4902312;29;20032;-78
2021/11/18 02:48:39;;;;;;;23.08;3.17;;;;;;;3.35;100.00;102076.25;4918094;29;20080;-77
2021/11/18 02:51:08;;;;;;;19.75;3.28;;;;;;;3.32;100.00;102079.81;4890295;29;20136;-77
2021/11/18 02:53:35;;;;;;;28.00;3.35;;;;;;;3.33;100.00;102083.25;4905758;29;20039;-77
2021/11/18 02:56:01;;;;;;;29.63;3.65;;;;;;;3.40;100.00;102082.91;4906932;29;20708;-77
2021/11/18 02:58:28;;;;;;;28.27;3.80;;;;;;;3.40;100.00;102069.09;4917964;29;20573;-78
2021/11/18 03:01:16;;;;;;;38.05;4.35;;;;;;;3.51;100.00;102075.50;4896952;29;20458;-76
2021/11/18 03:03:42;;;;;;;18.52;3.95;;;;;;;3.58;100.00;102062.25;4906660;29;20025;-77
2021/11/18 03:06:08;;;;;;;31.80;4.30;;;;;;;3.66;100.00;102045.44;4874942;29;20048;-77
2021/11/18 03:08:34;;;;;;;25.05;4.50;;;;;;;3.70;100.00;102046.97;4879206;29;20442;-77
2021/11/18 03:11:01;;;;;;;23.17;3.42;;;;;;;3.77;100.00;102052.75;4883927;29;20043;-77
2021/11/18 03:13:29;;;;;;;22.40;3.70;;;;;;;3.87;100.00;102063.53;4908868;29;20033;-77
2021/11/18 03:16:01;;;;;;;43.95;4.13;;;;;;;4.02;100.00;102055.03;4907916;29;20059;-77
2021/11/18 03:18:28;;;;;;;34.60;4.82;;;;;;;4.06;100.00;102061.75;4907887;29;20037;-76
2021/11/18 03:20:56;;;;;;;28.42;4.70;;;;;;;4.09;100.00;102059.03;4907405;29;20040;-75
2021/11/18 03:23:22;;;;;;;24.35;3.92;;;;;;;4.01;100.00;102058.56;4886595;29;20044;-76
2021/11/18 03:25:48;;;;;;;37.83;4.72;;;;;;;4.10;100.00;102065.06;4873015;29;20503;-76
2021/11/18 03:28:27;;;;;;;34.95;4.35;;;;;;;4.19;100.00;102071.56;4878906;29;20107;-75
2021/11/18 03:30:55;;;;;;;20.63;3.70;;;;;;;4.23;100.00;102073.13;4887180;29;20508;-75
2021/11/18 03:33:26;;;;;;;24.38;3.47;;;;;;;4.35;100.00;102080.34;4911174;29;20115;-76
2021/11/18 03:35:52;;;;;;;27.58;4.00;;;;;;;4.40;100.00;102072.31;4906095;29;20036;-75
2021/11/18 03:38:20;;;;;;;31.30;5.13;;;;;;;4.50;100.00;102076.13;4912158;29;20068;-76
2021/11/18 03:41:05;;;;;;;27.77;4.57;;;;;;;4.60;100.00;102079.16;4899665;29;20425;-75
2021/11/18 03:43:41;;;;;;;37.28;4.45;;;;;;;4.63;100.00;102073.78;4901337;29;20036;-77
2021/11/18 03:46:08;;;;;;;25.92;4.82;;;;;;;4.72;100.00;102075.09;4901282;29;20032;-76
2021/11/18 03:48:36;;;;;;;30.17;4.80;;;;;;;4.72;100.00;102065.53;4923280;29;20047;-75
2021/11/18 03:51:04;;;;;;;26.13;4.10;;;;;;;4.67;100.00;102078.78;4900026;29;20380;-75
2021/11/18 03:53:34;;;;;;;26.95;3.88;;;;;;;4.74;100.00;102076.69;4893556;29;20608;-76
2021/11/18 03:56:16;;;;;;;32.35;4.57;;;;;;;4.76;100.00;102095.66;4913415;29;20036;-75
2021/11/18 03:58:43;;;;;;;37.95;4.20;;;;;;;4.76;100.00;102087.84;4892646;29;20521;-75
2021/11/18 04:01:13;;;;;;;36.88;4.53;;;;;;;4.91;100.00;102088.84;4896784;29;20043;-75
2021/11/18 04:03:39;;;;;;;32.65;4.45;;;;;;;5.11;100.00;102090.47;4908635;29;20447;-75
2021/11/18 04:06:06;;;;;;;34.00;4.40;;;;;;;5.22;100.00;102082.94;4906665;29;20127;-74
2021/11/18 04:08:46;;;;;;;32.47;4.80;;;;;;;5.26;100.00;102074.06;4887383;29;20391;-76
2021/11/18 04:11:12;;;;;;;34.45;4.85;;;;;;;5.30;100.00;102079.13;4885908;29;20536;-75
2021/11/18 04:13:38;;;;;;;25.80;4.28;;;;;;;5.37;100.00;102086.53;4899075;29;20086;-77
2021/11/18 04:16:07;;;;;;;31.95;4.80;;;;;;;5.35;100.00;102090.97;4890362;29;20076;-76
2021/11/18 04:18:33;;;;;;;30.58;4.85;;;;;;;5.30;100.00;102089.53;4903159;29;20044;-76
2021/11/18 04:20:59;;;;;;;35.30;4.68;;;;;;;5.31;100.00;102099.81;4903867;29;20127;-76
2021/11/18 04:23:27;;;;;;;27.42;3.80;;;;;;;5.34;100.00;102107.47;4869039;29;20131;-76
2021/11/18 04:25:53;;;;;;;29.92;4.80;;;;;;;5.34;100.00;102099.69;4899856;29;20036;-76
2021/11/18 04:28:20;;;;;;;23.58;4.65;;;;;;;5.42;100.00;102099.28;4902198;29;20036;-75
2021/11/18 04:30:55;;;;;;;37.65;5.15;;;;;;;5.42;100.00;102094.06;4881412;29;20068;-75
2021/11/18 04:33:29;;;;;;;34.97;5.65;;;;;;;5.43;100.00;102094.00;4906115;29;20131;-75
2021/11/18 04:35:56;;;;;;;37.08;5.63;;;;;;;5.41;100.00;102095.84;4889957;29;20068;-75
2021/11/18 04:38:25;;;;;;;30.73;5.53;;;;;;;5.38;100.00;102092.56;4880726;29;20047;-75
2021/11/18 04:40:50;;;;;;;35.63;5.43;;;;;;;5.33;100.00;102089.34;4890104;29;20040;-75
2021/11/18 04:43:21;;;;;;;40.72;5.93;;;;;;;5.33;100.00;102079.81;4889736;29;20119;-75
2021/11/18 04:45:50;;;;;;;31.65;5.40;;;;;;;5.35;100.00;102077.09;4920771;29;20044;-76
2021/11/18 04:48:16;;;;;;;30.88;5.32;;;;;;;5.39;100.00;102089.03;4895642;29;20064;-75
2021/11/18 04:50:42;;;;;;;30.63;4.93;;;;;;;5.31;100.00;102084.22;4887186;29;20032;-75
2021/11/18 04:53:09;;;;;;;33.95;5.38;;;;;;;5.26;100.00;102086.22;4880413;29;20039;-75
2021/11/18 04:55:36;;;;;;;34.80;5.63;;;;;;;5.22;100.00;102082.13;4898381;29;20056;-76
2021/11/18 04:58:03;;;;;;;30.63;5.57;;;;;;;5.24;100.00;102085.47;4885675;29;20043;-75
2021/11/18 05:00:34;;;;;;;34.17;6.50;;;;;;;5.28;100.00;102087.00;4886862;29;20052;-75
2021/11/18 05:03:00;;;;;;;41.08;5.97;;;;;;;5.29;100.00;102082.63;4887302;29;20048;-75
2021/11/18 05:05:27;;;;;;;44.70;7.25;;;;;;;5.28;100.00;102087.00;4891811;29;20037;-75
2021/11/18 05:07:53;;;;;;;46.60;6.93;;;;;;;5.21;100.00;102086.44;4886816;29;20519;-76
2021/11/18 05:10:20;;;;;;;47.60;6.90;;;;;;;5.07;100.00;102091.53;4900884;29;20506;-75
2021/11/18 05:12:47;;;;;;;35.50;6.35;;;;;;;5.03;100.00;102093.44;4879809;29;20453;-75
2021/11/18 05:15:17;;;;;;;40.00;6.47;;;;;;;4.97;100.00;102101.56;4863917;29;20041;-75
2021/11/18 05:17:47;;;;;;;37.85;6.50;;;;;;;5.03;100.00;102108.22;4865558;29;20036;-77
2021/11/18 05:20:16;;;;;;;45.53;8.18;;;;;;;5.04;100.00;102105.50;4897047;29;20029;-76
2021/11/18 05:22:43;;;;;;;34.67;7.80;;;;;;;5.06;100.00;102101.06;4909933;29;20032;-76
2021/11/18 05:25:13;;;;;;;40.15;7.50;;;;;;;5.14;100.00;102105.91;4884619;29;20099;-76
2021/11/18 05:27:40;;;;;;;34.28;7.43;;;;;;;5.04;100.00;102100.31;4903283;29;20028;-76
2021/11/18 05:30:08;;;;;;;42.55;7.35;;;;;;;5.01;100.00;102097.88;4903613;29;20415;-76
2021/11/18 05:32:34;;;;;;;45.28;7.40;;;;;;;5.04;100.00;102102.91;4893687;29;20071;-76
2021/11/18 05:35:12;;;;;;;38.40;8.25;;;;;;;5.03;100.00;102098.66;4903735;29;20032;-75
2021/11/18 05:37:38;;;;;;;45.72;8.02;;;;;;;5.13;100.00;102106.81;4886768;29;20051;-76
2021/11/18 05:40:08;;;;;;;35.65;7.70;;;;;;;5.10;100.00;102111.34;4875478;29;20031;-76
2021/11/18 05:42:35;;;;;;;32.80;6.43;;;;;;;5.03;100.00;102100.41;4886629;29;20151;-75
2021/11/18 05:45:02;;;;;;;30.08;7.18;;;;;;;4.98;100.00;102107.59;4909133;29;20461;-76
2021/11/18 05:47:29;;;;;;;21.50;6.47;;;;;;;4.93;100.00;102120.81;4908013;29;20045;-76
2021/11/18 05:49:55;;;;;;;36.83;7.05;;;;;;;4.88;100.00;102113.25;4893974;29;20043;-76
2021/11/18 05:52:22;;;;;;;39.72;7.57;;;;;;;4.94;100.00;102114.72;4901891;29;20414;-75
2021/11/18 05:54:49;;;;;;;44.60;8.55;;;;;;;4.95;100.00;102116.38;4902699;29;20064;-75
2021/11/18 05:57:15;;;;;;;32.50;7.75;;;;;;;4.91;100.00;102112.25;4879912;29;20047;-76
2021/11/18 05:59:42;;;;;;;40.88;7.80;;;;;;;4.91;100.00;102125.25;4867951;29;20043;-75
2021/11/18 06:02:08;;;;;;;44.20;8.88;;;;;;;4.98;100.00;102118.84;4906661;29;20028;-76
2021/11/18 06:04:33;;;;;;;46.92;9.35;;;;;;;5.09;100.00;102127.88;4887322;29;20050;-76
2021/11/18 06:07:03;;;;;;;44.50;10.00;;;;;;;5.16;100.00;102118.81;4886848;29;20486;-75
2021/11/18 06:09:29;;;;;;;44.13;9.80;;;;;;;5.19;100.00;102114.31;4882605;29;20029;-76
2021/11/18 06:11:55;;;;;;;47.70;9.20;;;;;;;5.30;100.00;102131.16;4889841;29;20132;-76
2021/11/18 06:14:22;;;;;;;42.78;9.07;;;;;;;5.29;100.00;102130.28;4886385;29;20036;-77
2021/11/18 06:16:51;;;;;;;51.22;10.02;;;;;;;5.35;100.00;102139.53;4887134;29;20040;-77
2021/11/18 06:19:17;;;;;;;50.38;9.32;;;;;;;5.43;100.00;102138.25;4900206;29;20028;-76
2021/11/18 06:21:49;;;;;;;51.55;9.75;;;;;;;5.57;100.00;102152.28;4885479;29;20038;-77
2021/11/18 06:24:17;;;;;;;35.38;7.82;;;;;;;5.53;100.00;102145.56;4898328;29;20071;-76
2021/11/18 06:26:50;;;;;;;53.17;9.07;;;;;;;5.56;100.00;102154.06;4886524;29;20055;-77
2021/11/18 06:29:22;;;;;;;46.17;9.07;;;;;;;5.55;100.00;102146.34;4888056;29;20071;-76
2021/11/18 06:31:52;;;;;;;37.30;8.43;;;;;;;5.58;100.00;102151.38;4881929;29;20047;-76
2021/11/18 06:34:19;;;;;;;38.40;7.85;;;;;;;5.57;100.00;102149.69;4893689;29;20450;-75
2021/11/18 06:36:45;;;;;;;45.83;8.23;;;;;;;5.57;100.00;102153.13;4882862;29;20402;-76
2021/11/18 06:39:12;;;;;;;36.97;7.75;;;;;;;5.60;100.00;102155.59;4915129;29;20048;-77
2021/11/18 06:41:39;;;;;;;32.38;7.70;;;;;;;5.55;100.00;102156.75;4893171;29;20041;-76
2021/11/18 06:44:05;;;;;;;44.97;7.63;;;;;;;5.54;100.00;102165.47;4892461;29;20040;-76
2021/11/18 06:46:31;;;;;;;46.80;8.63;;;;;;;5.52;100.00;102151.69;4886339;29;20036;-76
2021/11/18 06:48:59;;;;;;;46.70;8.40;;;;;;;5.56;100.00;102151.47;4885901;29;20119;-76
2021/11/18 06:51:25;;;;;;;42.78;7.85;;;;;;;5.56;100.00;102161.88;4881863;29;20175;-76
2021/11/18 06:53:55;;;;;;;41.67;8.45;;;;;;;5.56;100.00;102168.84;4912545;29;20075;-76
2021/11/18 06:56:28;;;;;;;37.38;8.10;;;;;;;5.60;100.00;102178.19;4887846;29;20077;-76
2021/11/18 06:58:55;;;;;;;42.20;8.75;;;;;;;5.60;100.00;102178.19;4884339;29;20786;-76
2021/11/18 07:01:23;;;;;;;50.05;9.02;;;;;;;5.72;100.00;102174.09;4892230;29;20044;-77
2021/11/18 07:03:49;;;;;;;43.60;7.95;;;;;;;5.70;100.00;102174.16;4898176;29;20040;-76
2021/11/18 07:06:18;;;;;;;49.25;8.07;;;;;;;5.67;100.00;102179.56;4905522;29;20056;-77
2021/11/18 07:08:45;;;;;;;41.95;8.00;;;;;;;5.68;100.00;102169.97;4894333;29;20131;-77
2021/11/18 07:11:14;;;;;;;40.33;8.60;;;;;;;5.77;100.00;102178.13;4899230;29;20037;-77
2021/11/18 07:13:42;;;;;;;58.60;9.50;;;;;;;5.92;100.00;102180.88;4920106;29;20166;-76
2021/11/18 07:16:12;;;;;;;44.67;9.10;;;;;;;5.96;100.00;102180.66;4888993;29;20079;-76
2021/11/18 07:18:39;;;;;;;46.78;9.27;;;;;;;5.97;100.00;102161.50;4907141;29;20045;-76
2021/11/18 07:21:06;;;;;;;37.85;7.72;;;;;;;6.08;100.00;102162.69;4887325;29;20594;-76
2021/11/18 07:23:33;;;;;;;56.17;8.88;;;;;;;6.14;100.00;102170.16;4885043;29;20037;-76
2021/11/18 07:26:01;;;;;;;45.60;8.13;;;;;;;6.17;100.00;102173.44;4881334;29;20036;-76
2021/11/18 07:28:31;;;;;;;47.95;8.60;;;;;;;6.21;100.00;102174.13;4902605;29;20071;-76
2021/11/18 07:30:57;;;;;;;43.90;8.27;;;;;;;6.21;100.00;102179.34;4889547;29;20111;-76
2021/11/18 07:33:24;;;;;;;50.90;8.77;;;;;;;6.23;100.00;102193.97;4897774;29;20135;-76
2021/11/18 07:35:52;;;;;;;38.05;8.82;;;;;;;6.28;100.00;102203.31;4904118;29;20064;-76
2021/11/18 07:38:23;;;;;;;59.72;9.88;;;;;;;6.38;100.00;102205.31;4880572;29;20036;-76
2021/11/18 07:40:50;;;;;;;44.13;9.13;;;;;;;6.48;100.00;102197.84;4904592;29;20036;-76
2021/11/18 07:43:26;;;;;;;37.75;8.45;;;;;;;6.58;100.00;102212.06;4890941;29;20092;-75
2021/11/18 07:45:54;;;;;;;44.53;9.10;;;;;;;6.60;100.00;102202.38;4926472;29;20048;-76
2021/11/18 07:48:42;;;;;;;41.65;8.52;;;;;;;6.64;100.00;102195.22;4891162;29;20039;-76
2021/11/18 07:51:09;;;;;;;38.70;8.65;;;;;;;6.76;100.00;102189.34;4902428;29;20494;-76
2021/11/18 07:53:35;;;;;;;42.97;9.20;;;;;;;6.89;100.00;102189.47;4908846;29;20040;-75
2021/11/18 07:56:02;;;;;;;46.95;9.52;;;;;;;6.91;100.00;102190.25;4906151;29;20046;-76
2021/11/18 07:58:30;;;;;;;44.08;9.40;;;;;;;6.90;100.00;102188.56;4889355;29;20159;-76
2021/11/18 08:00:58;;;;;;;47.30;9.48;;;;;;;6.90;100.00;102188.56;4888862;29;20036;-76
2021/11/18 08:03:30;;;;;;;53.72;10.40;;;;;;;6.96;100.00;102195.19;4890099;29;20033;-75
2021/11/18 08:06:14;;;;;;;42.00;10.10;;;;;;;7.01;100.00;102195.78;4903543;29;20056;-76
2021/11/18 08:08:51;;;;;;;43.47;10.18;;;;;;;7.00;100.00;102196.69;4895118;29;20024;-76
2021/11/18 08:11:31;;;;;;;48.58;10.63;;;;;;;7.08;100.00;102202.28;4897255;29;20032;-75
2021/11/18 08:13:58;;;;;;;48.42;11.68;;;;;;;7.11;100.00;102188.25;4906767;29;20506;-76
2021/11/18 08:16:25;;;;;;;52.35;12.15;;;;;;;7.18;100.00;102186.97;4894105;29;20044;-76
2021/11/18 08:18:56;;;;;;;49.28;11.70;;;;;;;7.24;100.00;102188.38;4890124;29;20036;-77
2021/11/18 08:21:23;;;;;;;48.33;11.63;;;;;;;7.28;100.00;102198.53;4893241;29;20453;-77
2021/11/18 08:23:51;;;;;;;51.95;11.68;;;;;;;7.32;100.00;102194.81;4911805;29;20508;-76
2021/11/18 08:26:21;;;;;;;50.75;11.98;;;;;;;7.35;100.00;102199.03;4884517;29;20127;-78
2021/11/18 08:28:47;;;;;;;47.85;12.48;;;;;;;7.36;100.00;102201.53;4902449;29;20482;-77
2021/11/18 08:31:15;;;;;;;47.72;11.70;;;;;;;7.35;100.00;102199.03;4904532;29;20060;-76
2021/11/18 08:34:01;;;;;;;48.40;11.50;;;;;;;7.38;100.00;102204.06;4917525;29;20043;-76
2021/11/18 08:36:28;;;;;;;48.08;10.95;;;;;;;7.42;100.00;102205.56;4899113;29;20091;-76
2021/11/18 08:38:56;;;;;;;38.47;11.00;;;;;;;7.44;100.00;102202.88;4895427;29;20041;-76
2021/11/18 08:41:23;;;;;;;48.33;11.38;;;;;;;7.51;100.00;102218.06;4897529;29;20108;-77
2021/11/18 08:43:53;;;;;;;51.25;11.43;;;;;;;7.55;100.00;102203.06;4885244;29;20032;-76
2021/11/18 08:46:22;;;;;;;44.42;11.65;;;;;;;7.57;100.00;102203.81;4905682;29;20177;-75
2021/11/18 08:48:48;;;;;;;47.28;11.48;;;;;;;7.56;100.00;102202.16;4882475;29;20040;-76
2021/11/18 08:51:19;;;;;;;42.28;11.60;;;;;;;7.66;100.00;102213.72;4880865;29;20037;-76
2021/11/18 08:53:48;;;;;;;41.88;11.40;;;;;;;7.63;100.00;102226.13;4881506;29;20052;-75
2021/11/18 08:56:14;;;;;;;39.90;10.27;;;;;;;7.68;100.00;102218.84;4894043;29;20044;-75
2021/11/18 08:58:42;;;;;;;40.42;11.07;;;;;;;7.71;100.00;102218.69;4903198;29;20036;-76
2021/11/18 09:01:36;;;;;;;35.95;10.90;;;;;;;7.71;100.00;102216.91;4902712;29;20056;-76
2021/11/18 09:04:06;;;;;;;43.42;10.68;;;;;;;7.84;100.00;102214.41;4895146;29;20087;-75
2021/11/18 09:06:33;;;;;;;47.70;11.27;;;;;;;7.87;100.00;102200.31;4912291;29;20075;-76
2021/11/18 09:08:58;;;;;;;45.40;11.15;;;;;;;7.89;100.00;102188.84;4888565;29;20044;-75
2021/11/18 09:11:26;;;;;;;48.83;11.30;;;;;;;7.91;100.00;102202.66;4887627;29;20045;-77
2021/11/18 09:13:54;;;;;;;50.45;12.77;;;;;;;7.89;100.00;102208.88;4875804;29;20127;-76
2021/11/18 09:16:22;;;;;;;45.42;11.70;;;;;;;7.90;100.00;102202.75;4884051;29;20045;-75
2021/11/18 09:19:10;;;;;;;45.10;11.77;;;;;;;7.89;100.00;102216.72;4882148;29;20139;-75
2021/11/18 09:21:38;;;;;;;58.03;12.63;;;;;;;7.91;100.00;102220.94;4860279;29;20051;-74
2021/11/18 09:24:16;;;;;;;47.83;11.55;;;;;;;7.90;100.00;102224.47;4887548;29;20040;-76
2021/11/18 09:26:48;;;;;;;49.13;11.80;;;;;;;7.87;100.00;102215.97;4893359;29;20047;-77
2021/11/18 09:29:15;;;;;;;39.55;11.45;;;;;;;7.85;100.00;102228.28;4898836;29;20478;-76
2021/11/18 09:32:01;;;;;;;38.38;10.75;;;;;;;7.86;100.00;102219.53;4892949;29;20040;-76
2021/11/18 09:34:27;;;;;;;51.45;12.85;;;;;;;7.91;100.00;102218.31;4894738;29;20404;-77
2021/11/18 09:36:54;;;;;;;49.13;12.20;;;;;;;7.96;100.00;102215.41;4878753;29;20486;-77
2021/11/18 09:39:22;;;;;;;53.90;12.93;;;;;;;8.02;100.00;102224.66;4897872;29;20123;-77
2021/11/18 09:42:02;;;;;;;52.10;13.52;;;;;;;8.10;100.00;102228.50;4894833;29;20438;-78
2021/11/18 09:45:04;;;;;;;45.47;12.27;;;;;;;8.09;100.00;102223.34;4886428;29;20043;-77
2021/11/18 09:47:58;;;;;;;40.42;11.93;;;;;;;8.11;100.00;102224.09;4910015;29;20044;-76
2021/11/18 09:50:44;;;;;;;44.97;11.70;;;;;;;8.15;100.00;102236.03;4895793;29;20028;-75
2021/11/18 09:53:32;;;;;;;47.53;12.55;;;;;;;8.17;100.00;102226.34;4903909;29;20052;-75
2021/11/18 09:56:10;;;;;;;37.95;11.27;;;;;;;8.17;100.00;102228.94;4916180;29;20032;-76
2021/11/18 09:59:27;;;;;;;36.67;10.45;;;;;;;8.25;100.00;102228.47;4917758;29;20075;-75
2021/11/18 10:02:10;;;;;;;40.22;11.82;;;;;;;8.29;100.00;102228.19;4826089;29;20093;-77
2021/11/18 10:04:43;;;;;;;44.53;11.30;;;;;;;8.20;100.00;102231.38;4896793;29;20051;-75
2021/11/18 10:07:30;;;;;;;38.28;10.45;;;;;;;8.17;100.00;102244.63;4890780;29;20068;-76
2021/11/18 10:10:02;;;;;;;40.42;12.30;;;;;;;8.17;100.00;102244.63;4902431;29;20033;-77
2021/11/18 10:12:47;;;;;;;45.42;11.45;;;;;;;8.12;100.00;102231.03;4878580;29;20044;-75
2021/11/18 10:15:21;;;;;;;41.58;10.95;;;;;;;8.10;100.00;102228.50;4885778;29;20044;-75
2021/11/18 10:17:54;;;;;;;44.17;11.93;;;;;;;8.13;100.00;102230.91;4891164;29;20063;-76
2021/11/18 10:20:41;;;;;;;37.78;11.63;;;;;;;8.21;100.00;102242.66;4888772;29;20106;-76
2021/11/18 10:23:10;;;;;;;40.97;11.15;;;;;;;8.26;100.00;102233.59;4896370;29;20538;-76
2021/11/18 10:26:00;;;;;;;36.55;10.20;;;;;;;8.36;100.00;102215.56;4915554;29;20059;-76
2021/11/18 10:28:29;;;;;;;47.58;10.63;;;;;;;8.39;100.00;102204.94;4896363;29;20125;-76
2021/11/18 10:31:16;;;;;;;40.90;10.18;;;;;;;8.49;100.00;102202.59;4886442;29;20115;-75
2021/11/18 10:33:51;;;;;;;38.95;11.43;;;;;;;8.58;100.00;102195.00;4895061;29;20052;-76
2021/11/18 10:36:43;;;;;;;49.28;11.52;;;;;;;8.69;100.00;102190.88;4902367;29;20049;-76
2021/11/18 10:39:22;;;;;;;45.40;11.18;;;;;;;8.66;100.00;102191.91;4893486;29;20035;-76
2021/11/18 10:42:15;;;;;;;41.78;10.70;;;;;;;8.57;100.00;102192.50;4893176;29;20038;-76
2021/11/18 10:44:59;;;;;;;42.65;10.93;;;;;;;8.55;100.00;102183.91;4903014;29;20071;-76
2021/11/18 10:47:59;;;;;;;38.65;10.73;;;;;;;8.54;100.00;102187.47;4892881;29;20037;-76
2021/11/18 10:50:38;;;;;;;42.40;11.20;;;;;;;8.62;100.00;102194.81;4902832;29;20040;-77
2021/11/18 10:53:13;;;;;;;37.50;10.10;;;;;;;8.70;100.00;102190.78;4911340;29;20052;-76
2021/11/18 10:55:43;;;;;;;38.33;10.15;;;;;;;8.89;100.00;102192.19;4900509;29;20040;-76
2021/11/18 10:58:27;;;;;;;34.92;9.73;;;;;;;8.91;100.00;102180.69;4886643;29;20112;-76
2021/11/18 11:00:58;;;;;;;41.30;10.38;;;;;;;8.87;100.00;102184.47;4903430;29;20032;-76
2021/11/18 11:03:38;;;;;;;36.78;10.00;;;;;;;8.94;100.00;102192.72;4901709;29;20060;-75
2021/11/18 11:06:14;;;;;;;38.65;9.20;;;;;;;8.96;100.00;102188.22;4905819;29;20051;-76
2021/11/18 11:08:45;;;;;;;35.58;8.18;;;;;;;9.02;100.00;102187.81;4894413;29;20051;-76
2021/11/18 11:11:32;;;;;;;40.88;9.57;;;;;;;9.02;100.00;102177.34;4894413;29;20067;-75
2021/11/18 11:14:20;;;;;;;39.25;8.82;;;;;;;9.02;100.00;102177.34;4900323;29;20048;-77
2021/11/18 11:17:07;;;;;;;35.85;9.13;;;;;;;8.96;100.00;102164.69;4911856;29;20480;-76
2021/11/18 11:19:46;;;;;;;38.83;8.02;;;;;;;9.03;100.00;102159.91;4902815;29;20044;-75
2021/11/18 11:22:33;;;;;;;37.40;8.52;;;;;;;9.12;100.00;102164.53;4898831;29;20418;-75
2021/11/18 11:25:05;;;;;;;30.92;8.02;;;;;;;9.20;100.00;102154.38;4897824;29;20410;-76
2021/11/18 11:27:36;;;;;;;40.63;8.57;;;;;;;9.27;100.00;102154.81;4883844;29;20403;-77
2021/11/18 11:30:11;;;;;;;29.00;6.88;;;;;;;9.33;100.00;102149.16;4896761;29;20067;-78
2021/11/18 11:32:43;;;;;;;32.22;6.88;;;;;;;9.31;100.00;102143.19;4905668;29;20071;-76
2021/11/18 11:35:34;;;;;;;32.45;7.15;;;;;;;9.21;100.00;102123.78;4901628;29;20056;-76